Time;durP1;ratioP1;P1;durP2;ratioP2;P2;SDS_P1;SDS_P2;PMS_P1;PMS_P2;Temp;Humidity;BMP_temperature;BMP_pressure;BME280_temperature;BME280_humidity;BME280_pressure;Samples;Min_cycle;Max_cycle;Signal;HPM_P1;HPM_P2
2022/04/10 00:01:29;;;;;;;9.50;4.62;;;;;;;2.47;66.11;99803.09;2101962;83;27810;-64
2022/04/10 00:04:31;;;;;;;9.10;4.85;;;;;;;2.47;66.12;99801.34;2118432;83;28721;-66
2022/04/10 00:07:33;;;;;;;14.30;4.50;;;;;;;2.48;66.13;99795.58;2084914;85;32460;-66
2022/04/10 00:10:35;;;;;;;11.10;4.60;;;;;;;2.47;66.14;99800.02;2084908;85;33020;-65
2022/04/10 00:13:38;;;;;;;11.12;4.50;;;;;;;2.45;66.21;99795.65;2084428;85;29964;-65
2022/04/10 00:16:40;;;;;;;7.05;4.35;;;;;;;2.42;66.14;99805.39;2091713;83;27668;-66
2022/04/10 00:19:43;;;;;;;8.85;4.42;;;;;;;2.41;66.28;99806.77;2123530;83;29429;-65
2022/04/10 00:22:48;;;;;;;6.62;3.30;;;;;;;2.39;66.28;99803.28;2088934;83;30943;-65
2022/04/10 00:25:49;;;;;;;7.62;4.25;;;;;;;2.35;66.36;99804.25;2084770;85;32982;-65
2022/04/10 00:28:56;;;;;;;11.45;4.08;;;;;;;2.33;66.45;99811.34;2094393;83;30240;-66
2022/04/10 00:31:57;;;;;;;7.42;4.37;;;;;;;2.30;66.53;99814.09;2101314;83;27678;-65
2022/04/10 00:34:59;;;;;;;8.63;4.15;;;;;;;2.27;66.57;99812.36;2083809;85;29985;-65
2022/04/10 00:38:01;;;;;;;8.88;4.55;;;;;;;2.25;66.62;99807.12;2109279;83;32225;-65
2022/04/10 00:41:04;;;;;;;7.75;3.80;;;;;;;2.22;66.66;99811.63;2112353;83;33297;-65
2022/04/10 00:44:11;;;;;;;10.60;4.15;;;;;;;2.21;66.83;99816.02;2083905;85;30543;-65
2022/04/10 00:47:13;;;;;;;9.18;3.92;;;;;;;2.20;66.94;99809.47;2062346;85;28035;-65
2022/04/10 00:50:18;;;;;;;5.92;3.62;;;;;;;2.18;66.98;99811.27;2084339;85;28729;-64
2022/04/10 00:53:20;;;;;;;6.58;3.65;;;;;;;2.16;67.18;99809.97;2095948;83;31035;-65
2022/04/10 00:56:21;;;;;;;11.28;4.58;;;;;;;2.15;67.14;99816.19;2121341;83;33757;-65
2022/04/10 00:59:24;;;;;;;12.23;5.12;;;;;;;2.15;67.28;99817.94;2084958;85;30450;-65
2022/04/10 01:02:27;;;;;;;8.13;4.42;;;;;;;2.14;67.30;99823.69;2064157;85;27696;-65
2022/04/10 01:05:28;;;;;;;10.82;4.47;;;;;;;2.13;67.25;99824.59;2102318;83;29685;-65
2022/04/10 01:08:30;;;;;;;6.17;4.35;;;;;;;2.11;67.36;99816.69;2119124;83;31096;-65
2022/04/10 01:11:34;;;;;;;6.97;4.00;;;;;;;2.09;67.40;99817.16;2084934;85;33610;-65
2022/04/10 01:14:37;;;;;;;7.97;4.53;;;;;;;2.08;67.46;99825.99;2084223;85;29249;-65
2022/04/10 01:17:39;;;;;;;11.28;4.00;;;;;;;2.06;67.60;99823.87;2085018;85;27688;-65
2022/04/10 01:20:42;;;;;;;10.40;4.25;;;;;;;2.04;67.67;99819.50;2091433;83;29885;-65
2022/04/10 01:23:45;;;;;;;8.68;4.67;;;;;;;2.01;67.53;99831.45;2120768;83;31081;-66
2022/04/10 01:26:47;;;;;;;9.65;4.25;;;;;;;2.00;67.69;99833.23;2081330;85;33046;-66
2022/04/10 01:29:49;;;;;;;5.10;3.92;;;;;;;1.96;67.74;99836.41;2083169;85;30731;-66
2022/04/10 01:32:51;;;;;;;7.17;3.87;;;;;;;1.95;67.96;99842.59;2084481;85;28241;-65
2022/04/10 01:35:53;;;;;;;7.33;4.60;;;;;;;1.95;68.07;99845.23;2084440;85;29100;-66
2022/04/10 01:38:57;;;;;;;7.10;3.98;;;;;;;1.95;68.21;99851.84;2084731;85;31833;-65
2022/04/10 01:41:59;;;;;;;6.87;4.30;;;;;;;1.94;68.29;99846.13;2108709;83;32977;-66
2022/04/10 01:45:01;;;;;;;6.20;4.15;;;;;;;1.93;68.43;99853.64;2121808;83;30078;-65
2022/04/10 01:48:05;;;;;;;7.95;4.72;;;;;;;1.94;68.61;99850.53;2124093;83;27680;-65
2022/04/10 01:51:07;;;;;;;5.90;4.55;;;;;;;1.94;68.67;99859.34;2085361;83;28813;-66
2022/04/10 01:54:09;;;;;;;7.25;4.00;;;;;;;1.93;68.68;99858.92;2086047;83;31035;-66
2022/04/10 01:57:11;;;;;;;8.00;4.95;;;;;;;1.92;68.71;99862.46;2085323;85;33977;-66
2022/04/10 02:00:14;;;;;;;6.75;4.47;;;;;;;1.93;68.73;99868.59;2085514;83;28753;-65
2022/04/10 02:03:16;;;;;;;6.33;4.33;;;;;;;1.94;68.84;99869.91;2123918;83;27634;-66
2022/04/10 02:06:19;;;;;;;7.17;4.75;;;;;;;1.93;68.80;99872.13;2095895;83;29871;-66
2022/04/10 02:09:21;;;;;;;8.28;4.60;;;;;;;1.93;68.84;99879.16;2102278;78;31744;-60
2022/04/10 02:12:22;;;;;;;6.25;4.20;;;;;;;1.92;68.89;99873.03;2092120;85;33045;-60
2022/04/10 02:15:24;;;;;;;6.45;4.62;;;;;;;1.93;69.09;99882.70;2091964;85;29331;-62
2022/04/10 02:18:26;;;;;;;9.60;5.03;;;;;;;1.93;69.05;99887.98;2088674;85;27722;-61
2022/04/10 02:21:27;;;;;;;7.90;5.30;;;;;;;1.93;69.16;99891.94;2087430;84;29885;-62
2022/04/10 02:24:29;;;;;;;7.17;5.50;;;;;;;1.94;69.34;99896.33;2080228;84;30986;-61
2022/04/10 02:27:31;;;;;;;11.63;5.62;;;;;;;1.95;69.42;99895.42;2074297;85;33726;-61
2022/04/10 02:30:32;;;;;;;8.80;6.17;;;;;;;1.98;69.53;99893.16;2100549;84;30237;-61
2022/04/10 02:33:34;;;;;;;8.35;5.40;;;;;;;2.00;69.53;99900.61;2107391;84;27599;-61
2022/04/10 02:36:36;;;;;;;8.90;5.90;;;;;;;2.03;69.45;99896.58;2107210;84;28596;-61
2022/04/10 02:39:38;;;;;;;11.03;6.17;;;;;;;2.05;69.49;99897.42;2088394;84;31873;-61
2022/04/10 02:42:40;;;;;;;9.88;6.47;;;;;;;2.08;69.72;99893.84;2073606;85;33347;-61
2022/04/10 02:45:43;;;;;;;11.30;6.05;;;;;;;2.12;69.60;99892.41;2091143;84;29315;-61
2022/04/10 02:48:45;;;;;;;9.45;6.70;;;;;;;2.15;69.58;99887.53;2099748;84;27636;-61
2022/04/10 02:51:49;;;;;;;9.38;5.85;;;;;;;2.22;69.69;99894.87;2072664;85;29856;-61
2022/04/10 02:54:50;;;;;;;8.53;6.22;;;;;;;2.28;69.79;99892.96;2103323;84;31216;-61
2022/04/10 02:57:52;;;;;;;8.80;6.15;;;;;;;2.38;69.66;99902.87;2107077;84;34191;-61
2022/04/10 03:00:54;;;;;;;10.70;6.62;;;;;;;2.42;69.71;99896.59;2074602;84;30164;-61
2022/04/10 03:03:56;;;;;;;8.55;6.33;;;;;;;2.46;69.54;99901.38;2072569;85;28466;-61
2022/04/10 03:06:57;;;;;;;9.70;6.42;;;;;;;2.49;69.45;99907.89;2105156;84;29112;-61
2022/04/10 03:09:59;;;;;;;10.03;6.20;;;;;;;2.53;69.41;99912.69;2085767;84;31723;-60
2022/04/10 03:13:01;;;;;;;17.48;6.20;;;;;;;2.54;69.35;99912.64;2078646;85;33828;-60
2022/04/10 03:16:05;;;;;;;6.92;5.90;;;;;;;2.54;69.24;99921.89;2055813;85;30291;-58
2022/04/10 03:19:06;;;;;;;7.97;5.53;;;;;;;2.52;69.19;99926.34;2054704;85;27705;-58
2022/04/10 03:22:08;;;;;;;10.18;5.85;;;;;;;2.48;69.15;99923.38;2037914;86;28645;-58
2022/04/10 03:25:11;;;;;;;11.83;6.33;;;;;;;2.44;69.06;99933.59;2020093;88;32024;-59
2022/04/10 03:28:12;;;;;;;12.10;5.62;;;;;;;2.40;69.10;99938.52;2021548;86;34498;-60
2022/04/10 03:31:16;;;;;;;11.93;6.22;;;;;;;2.34;69.08;99942.61;2053545;86;29396;-60
2022/04/10 03:34:18;;;;;;;11.12;6.28;;;;;;;2.27;69.06;99944.52;2055659;86;27728;-60
2022/04/10 03:37:21;;;;;;;6.95;5.58;;;;;;;2.21;69.09;99953.45;2055693;86;30072;-61
2022/04/10 03:40:22;;;;;;;8.85;6.05;;;;;;;2.17;69.09;99957.52;2054210;85;32260;-60
2022/04/10 03:43:24;;;;;;;11.12;6.58;;;;;;;2.12;69.22;99961.11;2055657;86;32941;-61
2022/04/10 03:46:26;;;;;;;10.72;6.30;;;;;;;2.11;69.36;99961.16;2055408;86;30408;-60
2022/04/10 03:49:28;;;;;;;9.38;6.42;;;;;;;2.11;69.48;99971.27;2054715;86;27610;-60
2022/04/10 03:52:29;;;;;;;9.05;6.15;;;;;;;2.15;69.57;99977.81;2056011;86;28674;-60
2022/04/10 03:55:32;;;;;;;12.05;6.53;;;;;;;2.18;69.63;99973.33;2054547;86;30934;-60
2022/04/10 03:58:34;;;;;;;11.90;6.37;;;;;;;2.22;69.60;99980.77;2033069;86;33014;-61
2022/04/10 04:01:37;;;;;;;10.13;6.47;;;;;;;2.22;69.50;99980.30;2037886;86;29345;-61
2022/04/10 04:04:39;;;;;;;10.78;6.45;;;;;;;2.24;69.41;99989.50;2055973;86;27544;-61
2022/04/10 04:07:41;;;;;;;8.63;5.72;;;;;;;2.21;69.33;99993.09;2054620;86;28674;-61
2022/04/10 04:10:43;;;;;;;7.78;6.80;;;;;;;2.19;69.26;100005.92;2080322;85;31052;-61
2022/04/10 04:13:45;;;;;;;7.90;6.45;;;;;;;2.15;69.22;100007.77;2079592;85;33797;-61
2022/04/10 04:16:47;;;;;;;9.85;6.53;;;;;;;2.09;69.24;100017.13;2072242;85;30561;-62
2022/04/10 04:19:51;;;;;;;7.95;6.55;;;;;;;2.05;69.22;100016.75;2073264;85;27588;-60
2022/04/10 04:22:54;;;;;;;8.20;6.00;;;;;;;2.02;69.29;100024.30;2072054;85;28593;-61
2022/04/10 04:25:56;;;;;;;8.68;5.97;;;;;;;2.00;69.27;100026.09;2093222;84;31060;-61
2022/04/10 04:28:58;;;;;;;9.50;6.20;;;;;;;1.99;69.24;100031.42;2081537;84;32825;-61
2022/04/10 04:32:00;;;;;;;8.40;6.70;;;;;;;1.98;69.27;100037.14;2072513;85;29808;-60
2022/04/10 04:35:02;;;;;;;10.58;6.42;;;;;;;1.97;69.36;100044.20;2106201;84;27672;-61
2022/04/10 04:38:05;;;;;;;9.75;5.70;;;;;;;1.99;69.48;100050.77;2085613;84;29204;-61
2022/04/10 04:41:10;;;;;;;9.58;6.47;;;;;;;2.03;69.54;100050.25;2083486;84;31921;-61
2022/04/10 04:44:10;;;;;;;10.18;6.37;;;;;;;2.08;69.69;100053.69;2107138;84;34408;-61
2022/04/10 04:47:12;;;;;;;11.40;6.60;;;;;;;2.17;69.80;100056.61;2081734;84;29346;-61
2022/04/10 04:50:14;;;;;;;14.60;7.10;;;;;;;2.27;69.88;100057.73;2072222;85;27667;-61
2022/04/10 04:53:16;;;;;;;11.97;7.05;;;;;;;2.39;69.87;100063.23;2073060;85;29474;-61
2022/04/10 04:56:18;;;;;;;15.72;8.15;;;;;;;2.52;69.88;100065.62;2072053;85;31890;-61
2022/04/10 04:59:20;;;;;;;11.97;8.50;;;;;;;2.67;69.89;100071.03;2074934;85;33884;-60
2022/04/10 05:02:22;;;;;;;13.78;6.97;;;;;;;2.80;69.74;100075.62;2074374;85;30000;-61
2022/04/10 05:05:25;;;;;;;13.10;7.78;;;;;;;2.95;69.73;100082.38;2088593;84;27573;-61
2022/04/10 05:08:27;;;;;;;15.10;8.38;;;;;;;3.11;69.62;100090.39;2073638;84;28698;-61
2022/04/10 05:11:29;;;;;;;10.23;7.37;;;;;;;3.23;69.53;100087.89;2074207;85;32218;-61
2022/04/10 05:14:32;;;;;;;8.23;7.00;;;;;;;3.36;69.41;100083.66;2099963;84;34201;-60
2022/04/10 05:17:43;;;;;;;11.15;7.62;;;;;;;3.50;69.28;100090.82;2085110;84;30297;-61
2022/04/10 05:20:52;;;;;;;14.50;7.12;;;;;;;3.67;69.12;100098.81;2079379;84;27681;-61
2022/04/10 05:23:55;;;;;;;9.95;7.12;;;;;;;3.82;68.97;100106.82;2107558;84;28725;-61
2022/04/10 05:26:57;;;;;;;15.23;7.60;;;;;;;3.96;68.87;100108.70;2075719;84;31077;-60
2022/04/10 05:29:59;;;;;;;9.30;6.95;;;;;;;4.10;68.47;100123.79;2042579;85;34205;-61
2022/04/10 05:33:01;;;;;;;12.53;7.37;;;;;;;4.23;68.48;100116.36;2082418;84;30469;-61
2022/04/10 05:36:05;;;;;;;12.88;7.28;;;;;;;4.35;68.37;100121.80;2104909;84;27667;-61
2022/04/10 05:39:07;;;;;;;11.28;6.72;;;;;;;4.46;68.12;100124.63;2074154;85;29325;-60
2022/04/10 05:42:10;;;;;;;10.53;6.58;;;;;;;4.53;67.86;100127.08;2096057;84;32251;-60
2022/04/10 05:45:13;;;;;;;11.28;6.55;;;;;;;4.62;67.84;100137.89;2096089;84;33761;-61
2022/04/10 05:48:15;;;;;;;7.62;5.30;;;;;;;4.70;67.62;100133.23;2072516;85;29420;-60
2022/04/10 05:51:18;;;;;;;8.95;5.97;;;;;;;4.77;67.48;100137.90;2072064;85;27708;-61
2022/04/10 05:54:20;;;;;;;12.93;6.42;;;;;;;4.80;67.37;100139.14;2072526;85;29755;-61
2022/04/10 05:57:22;;;;;;;9.43;5.95;;;;;;;4.88;67.31;100143.38;2072649;85;31916;-61
2022/04/10 06:00:25;;;;;;;14.70;7.72;;;;;;;4.93;67.10;100142.77;2076651;84;33447;-61
2022/04/10 06:03:27;;;;;;;13.35;5.97;;;;;;;4.99;66.99;100143.93;2107372;84;29762;-61
2022/04/10 06:06:28;;;;;;;8.55;5.92;;;;;;;5.13;66.76;100155.48;2080067;84;28313;-66
2022/04/10 06:09:30;;;;;;;11.75;6.15;;;;;;;5.31;66.82;100151.39;2071528;85;29032;-62
2022/04/10 06:12:32;;;;;;;8.83;6.00;;;;;;;5.49;66.55;100151.27;2081847;84;32363;-62
2022/04/10 06:15:34;;;;;;;77.95;31.02;;;;;;;5.68;66.19;100139.63;2082769;85;33124;-62
2022/04/10 06:18:36;;;;;;;33.85;16.82;;;;;;;5.77;65.87;100150.42;2082811;84;30021;-63
2022/04/10 06:21:39;;;;;;;36.63;13.30;;;;;;;5.82;65.72;100147.61;2083929;84;27726;-63
2022/04/10 06:24:41;;;;;;;16.00;8.85;;;;;;;5.84;65.37;100150.62;2083641;84;29138;-62
2022/04/10 06:27:43;;;;;;;25.35;10.43;;;;;;;5.84;65.29;100149.77;2082442;85;32009;-61
2022/04/10 06:30:46;;;;;;;46.35;15.63;;;;;;;5.78;65.01;100146.38;2080911;85;33045;-62
2022/04/10 06:33:49;;;;;;;115.80;35.28;;;;;;;5.75;64.75;100153.59;2082773;84;29537;-61
2022/04/10 06:36:51;;;;;;;26.95;9.68;;;;;;;5.70;64.94;100144.88;2083673;85;27867;-62
2022/04/10 06:39:53;;;;;;;63.30;21.52;;;;;;;5.72;64.63;100153.68;2083815;85;28817;-62
2022/04/10 06:42:54;;;;;;;16.60;7.50;;;;;;;5.66;64.67;100156.08;2115495;84;32263;-62
2022/04/10 06:45:56;;;;;;;15.18;7.30;;;;;;;5.65;64.65;100158.32;2098318;84;33339;-62
2022/04/10 06:48:58;;;;;;;24.80;9.63;;;;;;;5.66;64.72;100155.19;2081713;85;30665;-62
2022/04/10 06:52:00;;;;;;;21.68;9.45;;;;;;;5.70;64.66;100165.70;2081984;85;27785;-63
2022/04/10 06:55:03;;;;;;;33.95;13.32;;;;;;;5.77;64.78;100156.59;2118147;84;29306;-61
2022/04/10 06:58:05;;;;;;;32.58;13.40;;;;;;;5.83;64.36;100163.97;2093547;84;32252;-61
2022/04/10 07:01:07;;;;;;;17.02;6.58;;;;;;;5.82;64.20;100165.75;2093681;84;32979;-61
2022/04/10 07:04:09;;;;;;;8.30;5.30;;;;;;;5.83;63.93;100166.16;2119629;84;29895;-62
2022/04/10 07:07:12;;;;;;;23.27;10.68;;;;;;;5.83;63.93;100164.83;2082218;84;27747;-62
2022/04/10 07:10:14;;;;;;;42.65;17.82;;;;;;;5.87;63.93;100169.13;2077146;85;30032;-61
2022/04/10 07:13:20;;;;;;;44.90;19.52;;;;;;;5.91;63.61;100166.80;2055375;86;32492;-64
2022/04/10 07:16:23;;;;;;;37.63;16.82;;;;;;;5.94;63.71;100185.75;2056363;86;33629;-61
2022/04/10 07:19:26;;;;;;;44.90;26.62;;;;;;;5.98;63.45;100174.11;2069205;86;30134;-61
2022/04/10 07:25:49;;;;;;;27.48;9.68;;;;;;;6.18;63.35;100185.44;2080083;85;28947;-62
2022/04/10 07:28:52;;;;;;;10.05;5.03;;;;;;;6.27;63.03;100189.58;2073553;85;31646;-62
2022/04/10 07:31:54;;;;;;;36.30;14.45;;;;;;;6.42;62.83;100182.88;2048007;86;34176;-63
2022/04/10 07:34:56;;;;;;;34.45;14.35;;;;;;;6.58;62.99;100185.02;1995014;87;29681;-62
2022/04/10 07:38:01;;;;;;;48.05;16.70;;;;;;;6.78;62.42;100190.95;1992324;88;27779;-61
2022/04/10 07:41:03;;;;;;;39.48;13.15;;;;;;;6.92;62.03;100193.98;2051197;86;28548;-61
2022/04/10 07:44:05;;;;;;;31.15;11.08;;;;;;;7.03;61.71;100189.59;2050639;86;31905;-63
2022/04/10 07:47:25;;;;;;;35.40;13.20;;;;;;;7.21;61.57;100191.17;2044980;86;32969;-62
2022/04/10 07:50:28;;;;;;;13.32;5.20;;;;;;;7.47;61.28;100188.86;2043832;86;29396;-63
2022/04/10 07:53:31;;;;;;;19.73;8.03;;;;;;;7.88;60.53;100189.00;2058096;86;27647;-62
2022/04/10 07:56:32;;;;;;;21.60;8.53;;;;;;;8.30;59.95;100184.62;2056852;85;28670;-62
2022/04/10 07:59:35;;;;;;;23.00;6.58;;;;;;;8.62;59.28;100176.22;2060972;86;32278;-62
2022/04/10 08:02:38;;;;;;;32.85;12.73;;;;;;;9.14;59.36;100185.03;2063074;86;33525;-63
2022/04/10 08:05:40;;;;;;;23.85;8.88;;;;;;;9.50;58.16;100173.58;2062379;86;30245;-62
2022/04/10 08:08:43;;;;;;;15.53;5.58;;;;;;;9.87;57.42;100178.96;2034319;86;27706;-62
2022/04/10 08:11:45;;;;;;;8.05;4.00;;;;;;;10.31;57.23;100171.00;2059637;85;29126;-64
2022/04/10 08:14:48;;;;;;;19.92;7.65;;;;;;;10.38;56.09;100169.80;2088944;85;31747;-62
2022/04/10 08:17:51;;;;;;;14.03;5.15;;;;;;;10.28;55.84;100166.69;2079467;85;34367;-62
2022/04/10 08:20:53;;;;;;;16.00;8.55;;;;;;;10.14;55.79;100175.88;2067629;85;29419;-63
2022/04/10 08:23:55;;;;;;;14.07;5.65;;;;;;;10.06;55.99;100184.30;2068259;86;28073;-62
2022/04/10 08:26:57;;;;;;;16.67;7.15;;;;;;;9.89;55.29;100186.45;2083989;85;29884;-63
2022/04/10 08:29:59;;;;;;;13.03;4.65;;;;;;;9.72;55.15;100188.12;2081370;85;32330;-62
2022/04/10 08:33:01;;;;;;;16.30;5.35;;;;;;;9.65;55.08;100186.70;2091161;85;32882;-64
2022/04/10 08:36:05;;;;;;;11.12;4.83;;;;;;;9.58;54.91;100187.47;2091779;85;29718;-63
2022/04/10 08:39:07;;;;;;;17.65;7.53;;;;;;;9.52;54.66;100186.41;2069265;85;27743;-63
2022/04/10 08:42:09;;;;;;;13.08;5.28;;;;;;;9.33;54.44;100197.56;2066263;86;29750;-63
2022/04/10 08:45:12;;;;;;;17.20;7.45;;;;;;;9.11;54.36;100200.75;2072401;85;31876;-62
2022/04/10 08:48:15;;;;;;;19.15;7.53;;;;;;;8.92;54.39;100199.39;2072769;85;34315;-64
2022/04/10 08:51:17;;;;;;;13.18;4.17;;;;;;;8.89;54.66;100202.19;2073807;85;30108;-62
2022/04/10 08:54:20;;;;;;;8.48;2.80;;;;;;;8.93;54.58;100207.80;2097505;84;27641;-63
2022/04/10 08:57:25;;;;;;;8.28;3.00;;;;;;;8.89;53.89;100207.98;2093754;84;28647;-62
2022/04/10 09:00:28;;;;;;;11.95;3.98;;;;;;;8.92;54.23;100210.07;2072362;85;31719;-62
2022/04/10 09:03:31;;;;;;;8.60;3.30;;;;;;;9.10;53.39;100217.72;2071927;85;33963;-62
2022/04/10 09:06:33;;;;;;;5.90;1.65;;;;;;;9.21;52.89;100217.24;2099706;84;29522;-62
2022/04/10 09:09:37;;;;;;;16.57;7.50;;;;;;;9.23;52.90;100215.38;2072727;84;27662;-61
2022/04/10 09:12:45;;;;;;;6.30;2.58;;;;;;;9.33;52.68;100208.25;2075664;85;28657;-63
2022/04/10 09:15:47;;;;;;;7.67;2.30;;;;;;;9.78;53.36;100203.02;2094566;84;31021;-63
2022/04/10 09:19:10;;;;;;;11.57;3.95;;;;;;;10.29;52.51;100197.88;2051711;85;33438;-63
2022/04/10 09:22:29;;;;;;;9.65;3.37;;;;;;;10.67;51.26;100194.70;2072677;85;27705;-63
2022/04/10 09:25:31;;;;;;;5.62;2.70;;;;;;;10.91;49.92;100201.92;2083249;85;27725;-65
2022/04/10 09:28:46;;;;;;;2.05;1.55;;;;;;;11.02;49.60;100201.33;2016402;86;29918;-65
2022/04/10 09:31:55;;;;;;;3.37;1.77;;;;;;;11.14;50.10;100195.33;2056326;86;31040;-63
2022/04/10 09:34:58;;;;;;;3.02;1.77;;;;;;;11.34;50.06;100196.92;2055535;86;33761;-63
2022/04/10 09:38:00;;;;;;;6.22;2.15;;;;;;;11.69;50.00;100203.97;2054319;86;30006;-62
2022/04/10 09:41:11;;;;;;;7.33;2.80;;;;;;;12.04;49.47;100189.55;2054050;86;28348;-62
2022/04/10 09:44:23;;;;;;;7.17;2.52;;;;;;;12.20;48.80;100186.81;2054064;86;29479;-62
2022/04/10 09:47:25;;;;;;;10.10;4.42;;;;;;;12.21;47.91;100193.92;2054384;86;31047;-64
2022/04/10 09:50:34;;;;;;;11.57;5.70;;;;;;;12.09;48.01;100192.34;2054327;86;32982;-61
2022/04/10 09:53:36;;;;;;;13.75;5.55;;;;;;;12.14;47.94;100190.73;2054934;86;29705;-62
2022/04/10 09:56:38;;;;;;;7.65;3.10;;;;;;;12.21;47.87;100190.77;2055486;86;27718;-62
2022/04/10 09:59:48;;;;;;;11.55;4.67;;;;;;;12.25;47.21;100205.73;2053763;86;28481;-61
2022/04/10 10:02:51;;;;;;;7.65;4.22;;;;;;;12.12;46.77;100204.72;2053985;86;31860;-61
2022/04/10 10:05:55;;;;;;;9.15;3.55;;;;;;;12.02;46.36;100207.55;2054820;86;32985;-62
2022/04/10 10:08:59;;;;;;;4.97;2.72;;;;;;;11.97;46.80;100198.39;2042685;86;29442;-62
2022/04/10 10:12:03;;;;;;;8.38;3.20;;;;;;;11.98;46.91;100200.13;2050325;84;27779;-64
2022/04/10 10:15:09;;;;;;;8.90;3.40;;;;;;;12.09;46.58;100199.52;2034159;86;33207;-63
2022/04/10 10:18:15;;;;;;;4.75;1.90;;;;;;;12.18;46.26;100198.12;2053221;86;31123;-63
2022/04/10 10:21:18;;;;;;;6.53;2.30;;;;;;;12.09;45.55;100196.37;2054148;86;33002;-62
2022/04/10 10:24:23;;;;;;;9.63;2.60;;;;;;;11.92;46.26;100216.08;2053846;86;30196;-63
2022/04/10 10:27:48;;;;;;;8.25;3.10;;;;;;;11.85;46.15;100201.30;2037687;86;27746;-62
2022/04/10 10:31:35;;;;;;;4.50;2.00;;;;;;;11.90;46.47;100201.91;2051398;86;29417;-63
2022/04/10 10:34:37;;;;;;;3.58;1.90;;;;;;;11.88;46.12;100194.42;2055563;86;31907;-63
2022/04/10 10:37:52;;;;;;;9.60;2.17;;;;;;;12.05;45.91;100189.44;2055350;86;33739;-62
2022/04/10 10:41:19;;;;;;;8.43;2.42;;;;;;;12.28;45.41;100182.73;2055466;86;30110;-63
2022/04/10 10:44:32;;;;;;;9.00;2.40;;;;;;;12.40;45.43;100181.14;2055979;86;27662;-62
2022/04/10 10:47:34;;;;;;;4.85;2.27;;;;;;;12.44;44.91;100181.36;2022759;88;28660;-62
2022/04/10 10:50:42;;;;;;;9.68;3.50;;;;;;;12.33;43.63;100186.97;2049445;86;31756;-62
2022/04/10 10:53:53;;;;;;;6.37;2.95;;;;;;;12.21;44.03;100191.23;2055060;86;34213;-64
2022/04/10 10:56:59;;;;;;;8.93;3.37;;;;;;;12.10;43.54;100204.81;2053821;86;30347;-61
2022/04/10 11:00:12;;;;;;;5.70;2.08;;;;;;;12.00;44.44;100221.94;2056624;86;27587;-68
2022/04/10 11:03:15;;;;;;;7.12;2.12;;;;;;;11.82;44.55;100215.77;2022834;88;29268;-62
2022/04/10 11:06:20;;;;;;;8.58;2.67;;;;;;;11.56;44.82;100219.90;2043424;86;32315;-62
2022/04/10 11:09:31;;;;;;;6.28;2.33;;;;;;;11.43;45.51;100227.75;2012003;86;33143;-63
2022/04/10 11:12:38;;;;;;;5.90;1.95;;;;;;;11.32;45.72;100224.30;2048186;86;30162;-63
2022/04/10 11:15:49;;;;;;;7.30;2.62;;;;;;;11.31;45.54;100215.86;2054632;86;27739;-64
2022/04/10 11:18:52;;;;;;;8.50;3.33;;;;;;;11.32;45.89;100214.91;2055670;86;28773;-64
2022/04/10 11:21:54;;;;;;;10.80;3.50;;;;;;;11.31;45.73;100216.35;1995997;87;34287;-64
2022/04/10 11:25:06;;;;;;;13.15;5.20;;;;;;;11.31;45.72;100207.81;1987762;86;32405;-62
2022/04/10 11:28:10;;;;;;;5.65;2.25;;;;;;;11.30;45.99;100210.10;2054853;86;30181;-62
2022/04/10 11:31:33;;;;;;;8.48;4.12;;;;;;;11.35;45.67;100201.34;2056116;86;27641;-61
2022/04/10 11:34:39;;;;;;;7.15;2.95;;;;;;;11.36;45.87;100196.83;2055136;86;28653;-61
2022/04/10 11:37:46;;;;;;;9.75;3.40;;;;;;;11.43;45.79;100210.31;2054295;86;31065;-64
2022/04/10 11:40:52;;;;;;;7.33;2.90;;;;;;;11.39;45.54;100219.47;2054401;86;32996;-61
2022/04/10 11:43:54;;;;;;;6.37;1.72;;;;;;;11.14;46.00;100240.03;2054809;86;29317;-64
2022/04/10 11:47:00;;;;;;;2.65;1.45;;;;;;;10.69;46.52;100249.92;2055070;86;28289;-62
2022/04/10 11:50:04;;;;;;;4.95;1.70;;;;;;;10.32;47.26;100265.12;2055113;86;29587;-63
2022/04/10 11:53:14;;;;;;;6.00;2.35;;;;;;;9.95;47.65;100262.42;2056115;86;31175;-64
2022/04/10 11:56:16;;;;;;;8.03;4.10;;;;;;;9.56;48.38;100269.58;2053562;86;33057;-62
2022/04/10 11:59:20;;;;;;;6.33;3.10;;;;;;;9.25;49.02;100254.05;1988949;89;30567;-65
2022/04/10 12:02:24;;;;;;;16.10;2.95;;;;;;;9.17;50.11;100246.38;2036368;86;28272;-62
2022/04/10 12:05:34;;;;;;;13.58;6.00;;;;;;;9.34;51.18;100248.30;2039826;86;28860;-63
2022/04/10 12:08:40;;;;;;;20.25;13.15;;;;;;;9.60;50.78;100234.67;2054752;86;28577;-62
2022/04/10 12:11:45;;;;;;;13.88;7.12;;;;;;;9.84;51.57;100225.95;2056668;85;32955;-63
2022/04/10 12:14:49;;;;;;;6.92;4.58;;;;;;;9.99;51.45;100222.54;2075448;85;29410;-64
2022/04/10 12:18:12;;;;;;;10.78;4.40;;;;;;;10.21;51.28;100221.95;2053327;86;27724;-66
2022/04/10 12:21:16;;;;;;;5.45;2.83;;;;;;;10.27;51.26;100211.80;2052881;86;28703;-62
2022/04/10 12:24:24;;;;;;;7.25;2.75;;;;;;;10.38;50.63;100219.34;2056719;85;31035;-62
2022/04/10 12:27:27;;;;;;;10.00;3.05;;;;;;;10.40;50.29;100208.53;2086962;85;32971;-61
2022/04/10 12:30:32;;;;;;;4.75;1.92;;;;;;;10.46;49.85;100199.72;2064790;85;29373;-61
2022/04/10 12:33:37;;;;;;;8.03;2.98;;;;;;;10.49;49.39;100194.70;2055378;85;27591;-62
2022/04/10 12:36:53;;;;;;;7.55;2.83;;;;;;;10.47;48.47;100198.77;2053580;86;29528;-62
2022/04/10 12:39:58;;;;;;;5.72;3.05;;;;;;;10.45;48.83;100193.96;2055086;86;31040;-62
2022/04/10 12:43:03;;;;;;;6.42;2.70;;;;;;;10.60;49.13;100190.98;2053110;85;32390;-62
2022/04/10 12:46:12;;;;;;;6.55;2.87;;;;;;;10.79;49.13;100182.84;2052394;86;30106;-62
2022/04/10 12:49:21;;;;;;;11.05;3.25;;;;;;;10.97;48.70;100187.33;2053665;86;27725;-62
2022/04/10 12:52:23;;;;;;;15.05;5.75;;;;;;;11.06;47.96;100193.52;2052704;85;28661;-62
2022/04/10 12:55:31;;;;;;;11.95;5.50;;;;;;;11.02;47.69;100192.83;2053433;86;31019;-63
2022/04/10 12:58:50;;;;;;;58.83;26.87;;;;;;;10.97;46.51;100196.70;2052982;86;34140;-64
2022/04/10 13:01:53;;;;;;;38.90;18.73;;;;;;;10.92;47.33;100188.43;2053507;85;30410;-63
2022/04/10 13:05:01;;;;;;;14.73;6.92;;;;;;;10.97;47.33;100180.63;2052303;86;27714;-63
2022/04/10 13:08:05;;;;;;;32.67;16.57;;;;;;;11.16;46.70;100180.03;2053074;86;29878;-62
2022/04/10 13:11:09;;;;;;;13.38;5.40;;;;;;;11.32;46.37;100184.07;2052693;86;31776;-63
2022/04/10 13:14:13;;;;;;;24.23;9.70;;;;;;;11.58;46.24;100168.83;2063134;85;33039;-68
2022/04/10 13:17:15;;;;;;;7.78;2.98;;;;;;;11.85;44.90;100168.59;2072437;85;30199;-62
2022/04/10 13:20:23;;;;;;;32.98;13.53;;;;;;;12.05;44.76;100174.67;2073336;84;27677;-62
2022/04/10 13:23:25;;;;;;;17.07;6.22;;;;;;;12.25;44.86;100169.47;2084690;84;28656;-62
2022/04/10 13:26:29;;;;;;;49.83;21.15;;;;;;;12.44;43.74;100174.64;2071485;85;30292;-62
2022/04/10 13:29:31;;;;;;;13.78;5.78;;;;;;;12.55;43.86;100183.41;2072627;85;32984;-62
2022/04/10 13:32:33;;;;;;;11.83;4.62;;;;;;;12.58;43.32;100189.92;2071778;84;30541;-63
2022/04/10 13:35:35;;;;;;;13.45;6.53;;;;;;;12.48;43.46;100191.44;2074170;85;28023;-62
2022/04/10 13:38:37;;;;;;;18.02;8.35;;;;;;;12.33;43.29;100199.91;2074968;84;29745;-64
2022/04/10 13:41:39;;;;;;;14.68;7.08;;;;;;;12.11;42.68;100211.92;2089260;84;32366;-67
2022/04/10 13:44:43;;;;;;;10.32;6.67;;;;;;;11.85;44.14;100211.55;2049312;84;33557;-62
2022/04/10 13:47:45;;;;;;;10.23;5.47;;;;;;;11.73;44.65;100212.73;2107477;84;29438;-64
2022/04/10 13:50:47;;;;;;;7.03;3.35;;;;;;;11.57;45.08;100216.73;2078864;84;27730;-63
2022/04/10 13:53:50;;;;;;;7.92;4.00;;;;;;;11.59;45.36;100217.02;2071811;85;29548;-63
2022/04/10 13:56:51;;;;;;;5.95;3.27;;;;;;;11.66;44.92;100198.30;2080231;84;31820;-64
2022/04/10 13:59:53;;;;;;;5.50;2.75;;;;;;;11.65;44.19;100197.91;2106233;84;33041;-63
2022/04/10 14:02:55;;;;;;;5.50;3.12;;;;;;;11.47;44.12;100197.13;2091115;84;30464;-63
2022/04/10 14:05:58;;;;;;;2.83;1.87;;;;;;;11.33;44.17;100193.85;2072575;85;27731;-64
2022/04/10 14:09:01;;;;;;;3.37;1.87;;;;;;;11.14;44.17;100202.03;2081162;84;29637;-61
2022/04/10 14:12:06;;;;;;;3.10;1.32;;;;;;;11.01;43.89;100196.91;2102593;84;31116;-63
2022/04/10 14:15:11;;;;;;;4.60;1.50;;;;;;;10.82;43.84;100196.58;2051987;85;32965;-64
2022/04/10 14:18:13;;;;;;;3.37;1.77;;;;;;;10.59;43.79;100195.09;2072062;85;30128;-63
2022/04/10 14:21:15;;;;;;;4.00;1.70;;;;;;;10.40;44.08;100195.14;2061476;85;28352;-67
2022/04/10 14:24:17;;;;;;;3.60;1.32;;;;;;;10.21;44.26;100197.86;2044902;85;30001;-62